Time,TemperatureF,DewpointF,PressureIn,WindDirection,WindDirectionDegrees,WindSpeedMPH,WindSpeedGustMPH,Humidity,HourlyPrecipIn,Conditions,Clouds,dailyrainin,SoftwareType,DateUTC
2013-06-16 00:01:00,81.5,72.8,29.72,West,270,0.0,0.0,75,0.00,,---,0.00,VWS V13.01,2013-06-16 04:01:00,
2013-06-16 00:03:00,81.3,72.6,29.72,West,270,0.0,0.0,75,0.00,,---,0.00,VWS V13.01,2013-06-16 04:03:00,
2013-06-16 00:04:00,81.3,72.6,29.72,West,270,0.0,0.0,75,0.00,,---,0.00,VWS V13.01,2013-06-16 04:04:00,
2013-06-16 00:07:00,81.3,72.6,29.72,WSW,248,0.0,0.0,75,0.00,,---,0.00,VWS V13.01,2013-06-16 04:07:00,
2013-06-16 00:12:00,81.3,72.6,29.72,WSW,248,0.0,0.0,75,0.00,,---,0.00,VWS V13.01,2013-06-16 04:12:00,
2013-06-16 00:17:00,81.3,72.6,29.73,WNW,292,0.0,0.0,75,0.00,,---,0.00,VWS V13.01,2013-06-16 04:17:00,
2013-06-16 00:22:00,81.3,72.6,29.72,WSW,248,0.0,0.0,75,0.00,,---,0.00,VWS V13.01,2013-06-16 04:22:00,
2013-06-16 00:25:00,81.3,72.6,29.72,West,270,0.0,0.0,75,0.00,,---,0.00,VWS V13.01,2013-06-16 04:25:00,
2013-06-16 00:30:00,81.3,72.6,29.72,WSW,248,0.0,0.0,75,0.00,,---,0.00,VWS V13.01,2013-06-16 04:30:00,
2013-06-16 00:35:00,81.1,72.4,29.72,West,270,0.0,0.0,75,0.00,,---,0.00,VWS V13.01,2013-06-16 04:35:00,
2013-06-16 00:40:00,81.1,72.4,29.72,West,270,0.0,0.0,75,0.00,,---,0.00,VWS V13.01,2013-06-16 04:40:00,
2013-06-16 00:45:00,81.1,72.4,29.72,West,270,0.0,0.0,75,0.00,,---,0.00,VWS V13.01,2013-06-16 04:45:00,
2013-06-16 00:50:00,81.1,72.4,29.72,WSW,248,0.0,0.0,75,0.00,,---,0.00,VWS V13.01,2013-06-16 04:50:00,
2013-06-16 00:55:00,81.1,72.8,29.73,SW,225,0.0,0.0,76,0.00,,---,0.00,VWS V13.01,2013-06-16 04:55:00,
2013-06-16 01:01:00,80.9,72.6,29.72,WSW,248,0.0,0.0,76,0.00,,---,0.00,VWS V13.01,2013-06-16 05:01:00,
2013-06-16 01:06:00,80.9,72.6,29.73,WSW,248,0.0,0.0,76,0.00,,---,0.00,VWS V13.01,2013-06-16 05:06:00,
2013-06-16 01:11:00,80.9,72.6,29.72,WSW,248,0.0,0.0,76,0.00,,---,0.00,VWS V13.01,2013-06-16 05:11:00,
2013-06-16 01:16:00,80.7,72.8,29.72,West,270,0.0,0.0,77,0.00,,---,0.00,VWS V13.01,2013-06-16 05:16:00,
2013-06-16 01:21:00,80.7,72.8,29.72,West,270,0.0,0.0,77,0.00,,---,0.00,VWS V13.01,2013-06-16 05:21:00,
2013-06-16 01:26:00,80.7,72.8,29.72,SW,225,0.0,0.0,77,0.00,,---,0.00,VWS V13.01,2013-06-16 05:26:00,
2013-06-16 01:31:00,80.6,72.7,29.72,WSW,248,0.0,0.0,77,0.00,,---,0.00,VWS V13.01,2013-06-16 05:31:00,
2013-06-16 01:36:00,80.6,72.7,29.72,WSW,248,0.0,0.0,77,0.00,,---,0.00,VWS V13.01,2013-06-16 05:36:00,
2013-06-16 01:41:00,80.6,72.7,29.72,WSW,248,0.0,0.0,77,0.00,,---,0.00,VWS V13.01,2013-06-16 05:41:00,
2013-06-16 01:46:00,80.6,72.7,29.72,SW,225,0.0,0.0,77,0.00,,---,0.00,VWS V13.01,2013-06-16 05:46:00,
2013-06-16 01:51:00,80.4,72.5,29.72,West,270,0.0,0.0,77,0.00,,---,0.00,VWS V13.01,2013-06-16 05:51:00,
2013-06-16 01:56:00,80.4,72.5,29.72,WSW,248,0.0,0.0,77,0.00,,---,0.00,VWS V13.01,2013-06-16 05:56:00,
2013-06-16 02:01:00,80.4,72.5,29.72,SSW,202,0.0,0.0,77,0.00,,---,0.00,VWS V13.01,2013-06-16 06:01:00,
2013-06-16 02:20:00,80.4,72.5,29.71,SW,225,0.0,0.0,77,0.00,,---,0.00,VWS V13.01,2013-06-16 06:20:00,
2013-06-16 02:25:00,80.4,72.5,29.71,SW,225,0.0,0.0,77,0.00,,---,0.00,VWS V13.01,2013-06-16 06:25:00,
2013-06-16 02:30:00,80.2,72.3,29.72,WSW,248,0.0,0.0,77,0.00,,---,0.00,VWS V13.01,2013-06-16 06:30:00,
2013-06-16 02:35:00,80.2,72.3,29.71,SW,225,0.0,0.0,77,0.00,,---,0.00,VWS V13.01,2013-06-16 06:35:00,
2013-06-16 02:40:00,80.2,72.3,29.71,West,270,0.0,0.0,77,0.00,,---,0.00,VWS V13.01,2013-06-16 06:40:00,
2013-06-16 02:45:00,80.2,72.3,29.71,West,270,0.0,0.0,77,0.00,,---,0.00,VWS V13.01,2013-06-16 06:45:00,
2013-06-16 02:50:00,80.2,72.3,29.71,West,270,0.0,0.0,77,0.00,,---,0.00,VWS V13.01,2013-06-16 06:50:00,
2013-06-16 02:55:00,80.2,72.3,29.71,West,270,0.0,0.0,77,0.00,,---,0.00,VWS V13.01,2013-06-16 06:55:00,
2013-06-16 03:00:00,80.2,72.3,29.71,West,270,0.0,0.0,77,0.00,,---,0.00,VWS V13.01,2013-06-16 07:00:00,
2013-06-16 03:05:00,80.0,72.2,29.71,WSW,248,0.0,0.0,77,0.00,,---,0.00,VWS V13.01,2013-06-16 07:05:00,
2013-06-16 03:10:00,80.0,72.2,29.71,WSW,248,0.0,0.0,77,0.00,,---,0.00,VWS V13.01,2013-06-16 07:10:00,
2013-06-16 03:15:00,80.0,72.2,29.71,WSW,248,0.0,0.0,77,0.00,,---,0.00,VWS V13.01,2013-06-16 07:15:00,
2013-06-16 03:20:00,80.0,72.2,29.71,WSW,248,0.0,0.0,77,0.00,,---,0.00,VWS V13.01,2013-06-16 07:20:00,
2013-06-16 03:25:00,80.0,72.2,29.71,WSW,248,0.0,0.0,77,0.00,,---,0.00,VWS V13.01,2013-06-16 07:25:00,
2013-06-16 03:30:00,80.0,72.2,29.70,WSW,248,0.0,0.0,77,0.00,,---,0.00,VWS V13.01,2013-06-16 07:30:00,
2013-06-16 03:35:00,79.8,71.9,29.70,WSW,248,0.0,0.0,77,0.00,,---,0.00,VWS V13.01,2013-06-16 07:35:00,
2013-06-16 03:40:00,79.8,71.9,29.70,WSW,248,0.0,0.0,77,0.00,,---,0.00,VWS V13.01,2013-06-16 07:40:00,
2013-06-16 03:45:00,79.8,71.9,29.70,WSW,248,0.0,0.0,77,0.00,,---,0.00,VWS V13.01,2013-06-16 07:45:00,
2013-06-16 03:50:00,79.8,71.9,29.70,WSW,248,0.0,0.0,77,0.00,,---,0.00,VWS V13.01,2013-06-16 07:50:00,
2013-06-16 03:55:00,79.7,71.9,29.70,WSW,248,0.0,0.0,77,0.00,,---,0.00,VWS V13.01,2013-06-16 07:55:00,
2013-06-16 04:00:00,79.7,71.9,29.70,WSW,248,0.0,0.0,77,0.00,,---,0.00,VWS V13.01,2013-06-16 08:00:00,
2013-06-16 04:05:00,79.7,71.9,29.70,WSW,248,0.0,0.0,77,0.00,,---,0.00,VWS V13.01,2013-06-16 08:05:00,
2013-06-16 04:10:00,79.5,71.7,29.70,WSW,248,0.0,0.0,77,0.00,,---,0.00,VWS V13.01,2013-06-16 08:10:00,
2013-06-16 04:15:00,79.5,72.0,29.70,WSW,248,0.0,0.0,78,0.00,,---,0.00,VWS V13.01,2013-06-16 08:15:00,
2013-06-16 04:20:00,79.5,72.0,29.70,WSW,248,0.0,0.0,78,0.00,,---,0.00,VWS V13.01,2013-06-16 08:20:00,
2013-06-16 04:25:00,79.5,72.0,29.70,WSW,248,0.0,0.0,78,0.00,,---,0.00,VWS V13.01,2013-06-16 08:25:00,
2013-06-16 04:30:00,79.5,72.0,29.70,WSW,248,0.0,0.0,78,0.00,,---,0.00,VWS V13.01,2013-06-16 08:30:00,
2013-06-16 04:35:00,79.5,72.0,29.70,WSW,248,0.0,0.0,78,0.00,,---,0.00,VWS V13.01,2013-06-16 08:35:00,
2013-06-16 04:40:00,79.3,71.8,29.70,WSW,248,0.0,0.0,78,0.00,,---,0.00,VWS V13.01,2013-06-16 08:40:00,
2013-06-16 04:45:00,79.3,71.8,29.70,WSW,248,0.0,0.0,78,0.00,,---,0.00,VWS V13.01,2013-06-16 08:45:00,
2013-06-16 04:50:00,79.3,71.8,29.70,WSW,248,0.0,0.0,78,0.00,,---,0.00,VWS V13.01,2013-06-16 08:50:00,
2013-06-16 04:55:00,79.3,72.2,29.71,WSW,248,0.0,0.0,79,0.00,,---,0.00,VWS V13.01,2013-06-16 08:55:00,
2013-06-16 05:00:00,79.3,72.2,29.71,WSW,248,0.0,0.0,79,0.00,,---,0.00,VWS V13.01,2013-06-16 09:00:00,
2013-06-16 05:05:00,79.1,72.0,29.71,WSW,248,0.0,0.0,79,0.00,,---,0.00,VWS V13.01,2013-06-16 09:05:00,
2013-06-16 05:10:00,79.1,72.0,29.71,WSW,248,0.0,0.0,79,0.00,,---,0.00,VWS V13.01,2013-06-16 09:10:00,
2013-06-16 05:15:00,78.9,71.8,29.71,WSW,248,0.0,0.0,79,0.00,,---,0.00,VWS V13.01,2013-06-16 09:15:00,
2013-06-16 05:20:00,78.9,71.8,29.71,WSW,248,0.0,0.0,79,0.00,,---,0.00,VWS V13.01,2013-06-16 09:20:00,
2013-06-16 05:25:00,78.9,71.8,29.71,WSW,248,0.0,0.0,79,0.00,,---,0.00,VWS V13.01,2013-06-16 09:25:00,
2013-06-16 05:30:00,78.9,71.8,29.71,WSW,248,0.0,0.0,79,0.00,,---,0.00,VWS V13.01,2013-06-16 09:30:00,
2013-06-16 05:35:00,78.9,71.8,29.71,WSW,248,0.0,0.0,79,0.00,,---,0.00,VWS V13.01,2013-06-16 09:35:00,
2013-06-16 05:40:00,78.9,71.8,29.71,WSW,248,0.0,0.0,79,0.00,,---,0.00,VWS V13.01,2013-06-16 09:40:00,
2013-06-16 05:45:00,78.6,71.6,29.71,SSW,202,0.0,0.0,79,0.00,,---,0.00,VWS V13.01,2013-06-16 09:45:00,
2013-06-16 05:50:00,78.6,71.9,29.71,SSW,202,0.0,0.0,80,0.00,,---,0.00,VWS V13.01,2013-06-16 09:50:00,
2013-06-16 05:55:00,78.6,71.9,29.71,West,270,0.0,0.0,80,0.00,,---,0.00,VWS V13.01,2013-06-16 09:55:00,
2013-06-16 06:00:00,78.6,71.9,29.71,West,270,0.0,0.0,80,0.00,,---,0.00,VWS V13.01,2013-06-16 10:00:00,
2013-06-16 06:05:00,78.6,71.9,29.71,West,270,0.0,0.0,80,0.00,,---,0.00,VWS V13.01,2013-06-16 10:05:00,
2013-06-16 06:10:00,78.6,71.9,29.71,West,270,0.0,0.0,80,0.00,,---,0.00,VWS V13.01,2013-06-16 10:10:00,
2013-06-16 06:15:00,78.6,71.9,29.71,West,270,0.0,0.0,80,0.00,,---,0.00,VWS V13.01,2013-06-16 10:15:00,
2013-06-16 06:20:00,78.6,71.9,29.71,West,270,0.0,0.0,80,0.00,,---,0.00,VWS V13.01,2013-06-16 10:20:00,
2013-06-16 06:25:00,78.6,71.9,29.71,West,270,0.0,0.0,80,0.00,,---,0.00,VWS V13.01,2013-06-16 10:25:00,
2013-06-16 06:30:00,78.6,71.9,29.71,West,270,0.0,0.0,80,0.00,,---,0.00,VWS V13.01,2013-06-16 10:30:00,
2013-06-16 06:35:00,78.6,71.9,29.71,West,270,0.0,0.0,80,0.00,,---,0.00,VWS V13.01,2013-06-16 10:35:00,
2013-06-16 06:40:00,78.6,71.9,29.72,West,270,0.0,0.0,80,0.00,,---,0.00,VWS V13.01,2013-06-16 10:40:00,
2013-06-16 06:45:00,78.6,71.9,29.72,West,270,0.0,0.0,80,0.00,,---,0.00,VWS V13.01,2013-06-16 10:45:00,
2013-06-16 06:50:00,78.6,71.9,29.72,West,270,0.0,0.0,80,0.00,,---,0.00,VWS V13.01,2013-06-16 10:50:00,
2013-06-16 06:55:00,78.6,72.3,29.72,West,270,0.0,0.0,81,0.00,,---,0.00,VWS V13.01,2013-06-16 10:55:00,
2013-06-16 07:00:00,78.6,72.3,29.72,West,270,0.0,0.0,81,0.00,,---,0.00,VWS V13.01,2013-06-16 11:00:00,
2013-06-16 07:05:00,78.8,72.5,29.72,West,270,0.0,0.0,81,0.00,,---,0.00,VWS V13.01,2013-06-16 11:05:00,
2013-06-16 07:10:00,78.9,72.6,29.72,West,270,0.0,0.0,81,0.00,,---,0.00,VWS V13.01,2013-06-16 11:10:00,
2013-06-16 07:15:00,78.9,72.6,29.72,West,270,0.0,0.0,81,0.00,,---,0.00,VWS V13.01,2013-06-16 11:15:00,
2013-06-16 07:20:00,79.1,72.8,29.72,West,270,0.0,0.0,81,0.00,,---,0.00,VWS V13.01,2013-06-16 11:20:00,
2013-06-16 07:25:00,79.3,73.0,29.72,West,270,0.0,0.0,81,0.00,,---,0.00,VWS V13.01,2013-06-16 11:25:00,
2013-06-16 07:30:00,79.3,73.0,29.72,West,270,0.0,0.0,81,0.00,,---,0.00,VWS V13.01,2013-06-16 11:30:00,
2013-06-16 07:35:00,79.5,73.2,29.73,WSW,248,0.0,0.0,81,0.00,,---,0.00,VWS V13.01,2013-06-16 11:35:00,
2013-06-16 07:40:00,79.8,73.4,29.73,SW,225,0.0,0.0,81,0.00,,---,0.00,VWS V13.01,2013-06-16 11:40:00,
2013-06-16 07:45:00,80.0,73.7,29.73,WSW,248,0.0,0.0,81,0.00,,---,0.00,VWS V13.01,2013-06-16 11:45:00,
2013-06-16 07:50:00,80.4,74.0,29.73,West,270,0.0,0.0,81,0.00,,---,0.00,VWS V13.01,2013-06-16 11:50:00,
2013-06-16 07:55:00,80.9,74.5,29.73,WSW,248,0.0,0.0,81,0.00,,---,0.00,VWS V13.01,2013-06-16 11:55:00,
2013-06-16 08:00:00,81.1,74.3,29.73,WSW,248,0.0,0.0,80,0.00,,---,0.00,VWS V13.01,2013-06-16 12:00:00,
2013-06-16 08:05:00,81.6,74.8,29.73,WSW,248,0.0,0.0,80,0.00,,---,0.00,VWS V13.01,2013-06-16 12:05:00,
2013-06-16 08:10:00,82.0,74.8,29.74,SW,225,0.0,0.0,79,0.00,,---,0.00,VWS V13.01,2013-06-16 12:10:00,
2013-06-16 08:15:00,82.2,75.0,29.74,West,270,0.0,0.0,79,0.00,,---,0.00,VWS V13.01,2013-06-16 12:15:00,
2013-06-16 08:20:00,82.9,75.3,29.74,SW,225,0.0,0.0,78,0.00,,---,0.00,VWS V13.01,2013-06-16 12:20:00,
2013-06-16 08:25:00,82.9,74.9,29.75,WSW,248,0.0,0.0,77,0.00,,---,0.00,VWS V13.01,2013-06-16 12:25:00,
2013-06-16 08:30:00,83.1,75.2,29.74,SW,225,0.0,0.0,77,0.00,,---,0.00,VWS V13.01,2013-06-16 12:30:00,
2013-06-16 08:35:00,83.4,75.1,29.74,WSW,248,0.0,0.0,76,0.00,,---,0.00,VWS V13.01,2013-06-16 12:35:00,
2013-06-16 08:40:00,83.8,75.4,29.74,WNW,292,0.0,0.0,76,0.00,,---,0.00,VWS V13.01,2013-06-16 12:40:00,
2013-06-16 08:45:00,84.0,75.6,29.74,SW,225,0.0,0.0,76,0.00,,---,0.00,VWS V13.01,2013-06-16 12:45:00,
2013-06-16 08:50:00,84.5,75.7,29.75,West,270,0.0,0.0,75,0.00,,---,0.00,VWS V13.01,2013-06-16 12:50:00,
2013-06-16 08:55:00,84.9,76.1,29.75,WNW,292,0.0,0.0,75,0.00,,---,0.00,VWS V13.01,2013-06-16 12:55:00,
2013-06-16 09:00:00,85.1,75.9,29.75,WNW,292,0.0,0.0,74,0.00,,---,0.00,VWS V13.01,2013-06-16 13:00:00,
2013-06-16 09:05:00,85.2,76.0,29.75,West,270,0.0,0.0,74,0.00,,---,0.00,VWS V13.01,2013-06-16 13:05:00,
2013-06-16 09:10:00,85.2,75.6,29.75,WNW,292,0.0,0.0,73,0.00,,---,0.00,VWS V13.01,2013-06-16 13:10:00,
2013-06-16 09:15:00,85.2,75.6,29.75,West,270,0.0,0.0,73,0.00,,---,0.00,VWS V13.01,2013-06-16 13:15:00,
2013-06-16 09:20:00,85.6,76.0,29.75,West,270,0.0,0.0,73,0.00,,---,0.00,VWS V13.01,2013-06-16 13:20:00,
2013-06-16 09:25:00,85.8,76.2,29.75,West,270,0.0,0.0,73,0.00,,---,0.00,VWS V13.01,2013-06-16 13:25:00,
2013-06-16 09:30:00,86.1,76.0,29.75,WNW,292,0.0,0.0,72,0.00,,---,0.00,VWS V13.01,2013-06-16 13:30:00,
2013-06-16 09:35:00,86.5,76.4,29.75,West,270,0.0,0.0,72,0.00,,---,0.00,VWS V13.01,2013-06-16 13:35:00,
2013-06-16 09:40:00,86.7,76.2,29.75,West,270,0.0,0.0,71,0.00,,---,0.00,VWS V13.01,2013-06-16 13:40:00,
2013-06-16 09:45:00,86.7,76.2,29.75,WSW,248,0.0,0.0,71,0.00,,---,0.00,VWS V13.01,2013-06-16 13:45:00,
2013-06-16 09:50:00,87.0,76.0,29.75,WSW,248,0.0,0.0,70,0.00,,---,0.00,VWS V13.01,2013-06-16 13:50:00,
2013-06-16 09:55:00,87.2,76.2,29.75,NW,315,0.0,0.0,70,0.00,,---,0.00,VWS V13.01,2013-06-16 13:55:00,
2013-06-16 10:00:00,87.0,76.0,29.74,WNW,292,0.0,0.0,70,0.00,,---,0.00,VWS V13.01,2013-06-16 14:00:00,
2013-06-16 10:05:00,87.2,76.2,29.74,WNW,292,0.0,0.0,70,0.00,,---,0.00,VWS V13.01,2013-06-16 14:05:00,
2013-06-16 10:10:00,87.4,76.4,29.74,NW,315,0.0,0.0,70,0.00,,---,0.00,VWS V13.01,2013-06-16 14:10:00,
2013-06-16 10:15:00,87.4,76.0,29.74,West,270,0.0,0.0,69,0.00,,---,0.00,VWS V13.01,2013-06-16 14:15:00,
2013-06-16 10:20:00,87.8,76.4,29.74,WSW,248,0.0,0.0,69,0.00,,---,0.00,VWS V13.01,2013-06-16 14:20:00,
2013-06-16 10:25:00,87.8,76.4,29.74,West,270,0.0,0.0,69,0.00,,---,0.00,VWS V13.01,2013-06-16 14:25:00,
2013-06-16 10:30:00,87.6,76.2,29.74,NW,315,0.0,0.0,69,0.00,,---,0.00,VWS V13.01,2013-06-16 14:30:00,
2013-06-16 10:35:00,87.8,76.4,29.74,WNW,292,0.0,0.0,69,0.00,,---,0.00,VWS V13.01,2013-06-16 14:35:00,
2013-06-16 10:40:00,88.3,76.8,29.74,WSW,248,0.0,0.0,69,0.00,,---,0.00,VWS V13.01,2013-06-16 14:40:00,
2013-06-16 10:45:00,88.5,76.6,29.75,WNW,292,0.0,0.0,68,0.00,,---,0.00,VWS V13.01,2013-06-16 14:45:00,
2013-06-16 10:50:00,88.7,76.8,29.75,West,270,0.0,0.0,68,0.00,,---,0.00,VWS V13.01,2013-06-16 14:50:00,
2013-06-16 10:55:00,88.7,76.3,29.74,West,270,0.0,0.0,67,0.00,,---,0.00,VWS V13.01,2013-06-16 14:55:00,
2013-06-16 11:00:00,88.5,76.2,29.74,West,270,0.0,0.0,67,0.00,,---,0.00,VWS V13.01,2013-06-16 15:00:00,
2013-06-16 11:05:00,88.1,75.8,29.75,West,270,0.0,0.0,67,0.00,,---,0.00,VWS V13.01,2013-06-16 15:05:00,
2013-06-16 11:10:00,87.9,76.0,29.74,West,270,0.0,0.0,68,0.00,,---,0.00,VWS V13.01,2013-06-16 15:10:00,
2013-06-16 11:15:00,87.9,76.0,29.75,West,270,0.0,0.0,68,0.00,,---,0.00,VWS V13.01,2013-06-16 15:15:00,
2013-06-16 11:20:00,88.1,76.2,29.75,SW,225,0.0,0.0,68,0.00,,---,0.00,VWS V13.01,2013-06-16 15:20:00,
2013-06-16 11:25:00,88.5,76.6,29.75,West,270,0.0,0.0,68,0.00,,---,0.00,VWS V13.01,2013-06-16 15:25:00,
2013-06-16 11:30:00,88.5,76.6,29.75,SW,225,0.0,0.0,68,0.00,,---,0.00,VWS V13.01,2013-06-16 15:30:00,
2013-06-16 11:35:00,88.5,76.6,29.75,West,270,0.0,0.0,68,0.00,,---,0.00,VWS V13.01,2013-06-16 15:35:00,
2013-06-16 11:41:00,88.3,76.0,29.75,WNW,292,0.0,0.0,67,0.00,,---,0.00,VWS V13.01,2013-06-16 15:41:00,
2013-06-16 11:46:00,88.1,76.2,29.75,West,270,0.0,0.0,68,0.00,,---,0.00,VWS V13.01,2013-06-16 15:46:00,
2013-06-16 11:51:00,88.1,76.2,29.75,WSW,248,0.0,0.0,68,0.00,,---,0.00,VWS V13.01,2013-06-16 15:51:00,
2013-06-16 11:56:00,87.9,76.0,29.75,SW,225,0.0,0.0,68,0.00,,---,0.00,VWS V13.01,2013-06-16 15:56:00,
2013-06-16 12:01:00,87.9,76.0,29.75,West,270,0.0,0.0,68,0.00,,---,0.00,VWS V13.01,2013-06-16 16:01:00,
2013-06-16 12:06:00,87.9,76.0,29.75,WSW,248,0.0,0.0,68,0.00,,---,0.00,VWS V13.01,2013-06-16 16:06:00,
2013-06-16 12:11:00,88.5,77.0,29.75,SW,225,0.0,0.0,69,0.00,,---,0.00,VWS V13.01,2013-06-16 16:11:00,
2013-06-16 12:16:00,88.8,76.9,29.74,West,270,0.0,0.0,68,0.00,,---,0.00,VWS V13.01,2013-06-16 16:16:00,
2013-06-16 12:21:00,88.8,76.4,29.74,West,270,0.0,0.0,67,0.00,,---,0.00,VWS V13.01,2013-06-16 16:21:00,
2013-06-16 12:26:00,88.8,76.0,29.74,WNW,292,0.0,0.0,66,0.00,,---,0.00,VWS V13.01,2013-06-16 16:26:00,
2013-06-16 12:31:00,88.7,75.9,29.74,WSW,248,0.0,0.0,66,0.00,,---,0.00,VWS V13.01,2013-06-16 16:31:00,
2013-06-16 12:36:00,89.0,76.2,29.74,NW,315,0.0,0.0,66,0.00,,---,0.00,VWS V13.01,2013-06-16 16:36:00,
2013-06-16 12:41:00,89.4,76.6,29.74,West,270,0.0,0.0,66,0.00,,---,0.00,VWS V13.01,2013-06-16 16:41:00,
2013-06-16 12:46:00,89.9,77.0,29.73,West,270,0.0,0.0,66,0.00,,---,0.00,VWS V13.01,2013-06-16 16:46:00,
2013-06-16 12:51:00,90.3,77.4,29.74,West,270,0.0,0.0,66,0.00,,---,0.00,VWS V13.01,2013-06-16 16:51:00,
2013-06-16 12:56:00,91.2,78.3,29.74,WSW,248,0.0,0.0,66,0.00,,---,0.00,VWS V13.01,2013-06-16 16:56:00,
2013-06-16 13:01:00,91.5,78.1,29.74,West,270,0.0,0.0,65,0.00,,---,0.00,VWS V13.01,2013-06-16 17:01:00,
2013-06-16 13:06:00,91.7,77.8,29.73,SW,225,0.0,0.0,64,0.00,,---,0.00,VWS V13.01,2013-06-16 17:06:00,
2013-06-16 13:11:00,92.1,78.2,29.73,WSW,248,0.0,0.0,64,0.00,,---,0.00,VWS V13.01,2013-06-16 17:11:00,
2013-06-16 13:16:00,92.4,78.5,29.73,West,270,0.0,0.0,64,0.00,,---,0.00,VWS V13.01,2013-06-16 17:16:00,
2013-06-16 13:21:00,92.8,78.4,29.73,WNW,292,0.0,0.0,63,0.00,,---,0.00,VWS V13.01,2013-06-16 17:21:00,
2013-06-16 13:26:00,93.0,78.6,29.74,West,270,0.0,0.0,63,0.00,,---,0.00,VWS V13.01,2013-06-16 17:26:00,
2013-06-16 13:31:00,92.8,77.9,29.74,West,270,0.0,0.0,62,0.00,,---,0.00,VWS V13.01,2013-06-16 17:31:00,
2013-06-16 13:36:00,92.3,77.4,29.74,WNW,292,0.0,0.0,62,0.00,,---,0.00,VWS V13.01,2013-06-16 17:36:00,
2013-06-16 13:41:00,92.1,77.7,29.74,WNW,292,0.0,0.0,63,0.00,,---,0.00,VWS V13.01,2013-06-16 17:41:00,
2013-06-16 13:46:00,91.9,77.5,29.74,NW,315,0.0,0.0,63,0.00,,---,0.00,VWS V13.01,2013-06-16 17:46:00,
2013-06-16 13:51:00,92.1,77.7,29.74,West,270,0.0,0.0,63,0.00,,---,0.00,VWS V13.01,2013-06-16 17:51:00,
2013-06-16 13:56:00,92.3,77.9,29.74,WSW,248,0.0,0.0,63,0.00,,---,0.00,VWS V13.01,2013-06-16 17:56:00,
2013-06-16 14:01:00,92.4,78.0,29.74,WNW,292,0.0,0.0,63,0.00,,---,0.00,VWS V13.01,2013-06-16 18:01:00,
2013-06-16 14:06:00,92.8,77.9,29.74,WNW,292,0.0,0.0,62,0.00,,---,0.00,VWS V13.01,2013-06-16 18:06:00,
2013-06-16 14:11:00,92.6,77.7,29.74,WSW,248,0.0,0.0,62,0.00,,---,0.00,VWS V13.01,2013-06-16 18:11:00,
2013-06-16 14:16:00,92.4,77.5,29.74,WSW,248,0.0,0.0,62,0.00,,---,0.00,VWS V13.01,2013-06-16 18:16:00,
2013-06-16 14:21:00,92.4,77.5,29.74,WNW,292,0.0,0.0,62,0.00,,---,0.00,VWS V13.01,2013-06-16 18:21:00,
2013-06-16 14:26:00,92.6,77.7,29.74,West,270,0.0,0.0,62,0.00,,---,0.00,VWS V13.01,2013-06-16 18:26:00,
2013-06-16 14:31:00,92.8,78.4,29.74,SW,225,0.0,0.0,63,0.00,,---,0.00,VWS V13.01,2013-06-16 18:31:00,
2013-06-16 14:36:00,92.8,77.9,29.73,West,270,0.0,0.0,62,0.00,,---,0.00,VWS V13.01,2013-06-16 18:36:00,
2013-06-16 14:41:00,92.4,77.5,29.73,West,270,0.0,0.0,62,0.00,,---,0.00,VWS V13.01,2013-06-16 18:41:00,
2013-06-16 14:46:00,92.1,76.7,29.73,West,270,0.0,0.0,61,0.00,,---,0.00,VWS V13.01,2013-06-16 18:46:00,
2013-06-16 14:51:00,91.9,77.0,29.73,West,270,0.0,0.0,62,0.00,,---,0.00,VWS V13.01,2013-06-16 18:51:00,
2013-06-16 14:56:00,91.5,77.1,29.73,West,270,0.0,0.0,63,0.00,,---,0.00,VWS V13.01,2013-06-16 18:56:00,
2013-06-16 15:01:00,91.7,77.3,29.73,WNW,292,0.0,0.0,63,0.00,,---,0.00,VWS V13.01,2013-06-16 19:01:00,
2013-06-16 15:06:00,91.9,77.5,29.73,SW,225,0.0,0.0,63,0.00,,---,0.00,VWS V13.01,2013-06-16 19:06:00,
2013-06-16 15:11:00,92.4,78.0,29.73,West,270,0.0,0.0,63,0.00,,---,0.00,VWS V13.01,2013-06-16 19:11:00,
2013-06-16 15:16:00,92.4,77.5,29.73,WNW,292,0.0,0.0,62,0.00,,---,0.00,VWS V13.01,2013-06-16 19:16:00,
2013-06-16 15:21:00,92.1,77.2,29.73,WNW,292,0.0,0.0,62,0.00,,---,0.00,VWS V13.01,2013-06-16 19:21:00,
2013-06-16 15:26:00,92.1,77.2,29.72,SSW,202,0.0,0.0,62,0.00,,---,0.00,VWS V13.01,2013-06-16 19:26:00,
2013-06-16 15:31:00,92.3,77.4,29.72,West,270,0.0,0.0,62,0.00,,---,0.00,VWS V13.01,2013-06-16 19:31:00,
2013-06-16 15:36:00,92.1,77.2,29.72,WSW,248,0.0,0.0,62,0.00,,---,0.00,VWS V13.01,2013-06-16 19:36:00,
2013-06-16 15:41:00,92.3,77.4,29.72,West,270,0.0,0.0,62,0.00,,---,0.00,VWS V13.01,2013-06-16 19:41:00,
2013-06-16 15:46:00,92.4,77.5,29.71,WNW,292,0.0,0.0,62,0.00,,---,0.00,VWS V13.01,2013-06-16 19:46:00,
2013-06-16 15:51:00,92.3,77.4,29.71,WNW,292,0.0,0.0,62,0.00,,---,0.00,VWS V13.01,2013-06-16 19:51:00,
2013-06-16 15:56:00,92.3,77.4,29.71,WNW,292,0.0,0.0,62,0.00,,---,0.00,VWS V13.01,2013-06-16 19:56:00,
2013-06-16 16:01:00,92.1,77.7,29.71,WNW,292,0.0,0.0,63,0.00,,---,0.00,VWS V13.01,2013-06-16 20:01:00,
2013-06-16 16:06:00,91.9,77.0,29.71,WNW,292,0.0,0.0,62,0.00,,---,0.00,VWS V13.01,2013-06-16 20:06:00,
2013-06-16 16:11:00,91.7,77.3,29.70,SW,225,0.0,0.0,63,0.00,,---,0.00,VWS V13.01,2013-06-16 20:11:00,
2013-06-16 16:16:00,91.9,78.0,29.70,West,270,0.0,0.0,64,0.00,,---,0.00,VWS V13.01,2013-06-16 20:16:00,
2013-06-16 16:21:00,92.3,77.9,29.69,WSW,248,0.0,0.0,63,0.00,,---,0.00,VWS V13.01,2013-06-16 20:21:00,
2013-06-16 16:26:00,92.8,78.4,29.69,NW,315,0.0,0.0,63,0.00,,---,0.00,VWS V13.01,2013-06-16 20:26:00,
2013-06-16 16:31:00,92.6,78.2,29.70,NW,315,0.0,0.0,63,0.00,,---,0.00,VWS V13.01,2013-06-16 20:31:00,
2013-06-16 16:36:00,92.4,77.5,29.69,NW,315,0.0,0.0,62,0.00,,---,0.00,VWS V13.01,2013-06-16 20:36:00,
2013-06-16 16:41:00,92.1,77.7,29.70,WNW,292,0.0,0.0,63,0.00,,---,0.00,VWS V13.01,2013-06-16 20:41:00,
2013-06-16 16:46:00,92.1,77.7,29.70,SW,225,0.0,0.0,63,0.00,,---,0.00,VWS V13.01,2013-06-16 20:46:00,
2013-06-16 16:51:00,92.1,77.7,29.70,WSW,248,0.0,0.0,63,0.00,,---,0.00,VWS V13.01,2013-06-16 20:51:00,
2013-06-16 16:56:00,92.1,77.7,29.69,West,270,0.0,0.0,63,0.00,,---,0.00,VWS V13.01,2013-06-16 20:56:00,
2013-06-16 17:01:00,91.9,77.5,29.70,WNW,292,0.0,0.0,63,0.00,,---,0.00,VWS V13.01,2013-06-16 21:01:00,
2013-06-16 17:06:00,91.7,77.3,29.70,SW,225,0.0,0.0,63,0.00,,---,0.00,VWS V13.01,2013-06-16 21:06:00,
2013-06-16 17:11:00,91.2,76.8,29.71,WNW,292,0.0,0.0,63,0.00,,---,0.00,VWS V13.01,2013-06-16 21:11:00,
2013-06-16 17:16:00,90.6,76.8,29.71,SW,225,0.0,0.0,64,0.00,,---,0.00,VWS V13.01,2013-06-16 21:16:00,
2013-06-16 17:21:00,90.6,76.8,29.70,WNW,292,0.0,0.0,64,0.00,,---,0.00,VWS V13.01,2013-06-16 21:21:00,
2013-06-16 17:26:00,90.6,76.8,29.70,West,270,0.0,0.0,64,0.00,,---,0.00,VWS V13.01,2013-06-16 21:26:00,
2013-06-16 17:31:00,90.5,77.1,29.70,WNW,292,0.0,0.0,65,0.00,,---,0.00,VWS V13.01,2013-06-16 21:31:00,
2013-06-16 17:36:00,90.3,76.9,29.70,West,270,0.0,0.0,65,0.00,,---,0.00,VWS V13.01,2013-06-16 21:36:00,
2013-06-16 17:41:00,89.7,76.4,29.70,WSW,248,0.0,0.0,65,0.00,,---,0.00,VWS V13.01,2013-06-16 21:41:00,
2013-06-16 17:46:00,89.4,76.1,29.70,WSW,248,0.0,0.0,65,0.00,,---,0.00,VWS V13.01,2013-06-16 21:46:00,
2013-06-16 17:51:00,89.2,76.4,29.71,West,270,0.0,0.0,66,0.00,,---,0.00,VWS V13.01,2013-06-16 21:51:00,
2013-06-16 17:56:00,88.8,76.4,29.71,West,270,0.0,0.0,67,0.00,,---,0.00,VWS V13.01,2013-06-16 21:56:00,
2013-06-16 18:01:00,88.8,76.4,29.70,West,270,0.0,0.0,67,0.00,,---,0.00,VWS V13.01,2013-06-16 22:01:00,
2013-06-16 18:06:00,88.8,76.4,29.70,WSW,248,0.0,0.0,67,0.00,,---,0.00,VWS V13.01,2013-06-16 22:06:00,
2013-06-16 18:11:00,88.8,76.4,29.70,SW,225,0.0,0.0,67,0.00,,---,0.00,VWS V13.01,2013-06-16 22:11:00,
2013-06-16 18:17:00,89.0,76.6,29.70,WNW,292,0.0,0.0,67,0.00,,---,0.00,VWS V13.01,2013-06-16 22:17:00,
2013-06-16 18:22:00,89.2,76.8,29.70,West,270,0.0,0.0,67,0.00,,---,0.00,VWS V13.01,2013-06-16 22:22:00,
2013-06-16 18:27:00,89.2,76.8,29.70,WNW,292,0.0,0.0,67,0.00,,---,0.00,VWS V13.01,2013-06-16 22:27:00,
2013-06-16 18:32:00,89.4,77.0,29.69,SW,225,0.0,0.0,67,0.00,,---,0.00,VWS V13.01,2013-06-16 22:32:00,
2013-06-16 18:37:00,89.4,77.0,29.70,SW,225,0.0,0.0,67,0.00,,---,0.00,VWS V13.01,2013-06-16 22:37:00,
2013-06-16 18:43:00,89.4,77.0,29.70,WSW,248,0.0,0.0,67,0.00,,---,0.00,VWS V13.01,2013-06-16 22:43:00,
2013-06-16 18:48:00,89.4,77.0,29.70,WSW,248,0.0,0.0,67,0.00,,---,0.00,VWS V13.01,2013-06-16 22:48:00,
2013-06-16 18:53:00,89.4,77.0,29.70,WSW,248,0.0,0.0,67,0.00,,---,0.00,VWS V13.01,2013-06-16 22:53:00,
2013-06-16 18:58:00,89.2,76.8,29.70,West,270,0.0,0.0,67,0.00,,---,0.00,VWS V13.01,2013-06-16 22:58:00,
2013-06-16 19:03:00,89.2,76.8,29.69,SW,225,0.0,0.0,67,0.00,,---,0.00,VWS V13.01,2013-06-16 23:03:00,
2013-06-16 19:08:00,88.8,76.4,29.70,WNW,292,0.0,0.0,67,0.00,,---,0.00,VWS V13.01,2013-06-16 23:08:00,
2013-06-16 19:13:00,88.3,76.4,29.70,NW,315,0.0,0.0,68,0.00,,---,0.00,VWS V13.01,2013-06-16 23:13:00,
2013-06-16 19:18:00,88.1,76.2,29.70,West,270,0.0,0.0,68,0.00,,---,0.00,VWS V13.01,2013-06-16 23:18:00,
2013-06-16 19:23:00,87.9,76.0,29.70,West,270,0.0,0.0,68,0.00,,---,0.00,VWS V13.01,2013-06-16 23:23:00,
2013-06-16 19:28:00,87.6,76.2,29.70,West,270,0.0,0.0,69,0.00,,---,0.00,VWS V13.01,2013-06-16 23:28:00,
2013-06-16 19:33:00,87.6,76.2,29.70,West,270,0.0,0.0,69,0.00,,---,0.00,VWS V13.01,2013-06-16 23:33:00,
2013-06-16 19:38:00,87.4,76.0,29.70,West,270,0.0,0.0,69,0.00,,---,0.00,VWS V13.01,2013-06-16 23:38:00,
2013-06-16 19:43:00,87.0,76.0,29.70,WNW,292,0.0,0.0,70,0.00,,---,0.00,VWS V13.01,2013-06-16 23:43:00,
2013-06-16 19:48:00,86.7,75.3,29.70,WSW,248,0.0,0.0,69,0.00,,---,0.00,VWS V13.01,2013-06-16 23:48:00,
2013-06-16 19:53:00,86.5,75.6,29.70,WNW,292,0.0,0.0,70,0.00,,---,0.00,VWS V13.01,2013-06-16 23:53:00,
2013-06-16 19:58:00,86.1,75.2,29.70,West,270,0.0,0.0,70,0.00,,---,0.00,VWS V13.01,2013-06-16 23:58:00,
2013-06-16 20:03:00,85.8,75.3,29.71,WNW,292,0.0,0.0,71,0.00,,---,0.00,VWS V13.01,2013-06-17 00:03:00,
2013-06-16 20:08:00,85.6,75.1,29.71,NW,315,0.0,0.0,71,0.00,,---,0.00,VWS V13.01,2013-06-17 00:08:00,
2013-06-16 20:13:00,85.6,75.5,29.71,WNW,292,0.0,0.0,72,0.00,,---,0.00,VWS V13.01,2013-06-17 00:13:00,
2013-06-16 20:18:00,85.4,75.3,29.71,West,270,0.0,0.0,72,0.00,,---,0.00,VWS V13.01,2013-06-17 00:18:00,
2013-06-16 20:23:00,85.2,75.2,29.71,SW,225,0.0,0.0,72,0.00,,---,0.00,VWS V13.01,2013-06-17 00:23:00,
2013-06-16 20:28:00,85.2,75.2,29.71,West,270,0.0,0.0,72,0.00,,---,0.00,VWS V13.01,2013-06-17 00:28:00,
2013-06-16 20:33:00,85.1,75.5,29.71,WSW,248,0.0,0.0,73,0.00,,---,0.00,VWS V13.01,2013-06-17 00:33:00,
2013-06-16 20:38:00,84.9,75.3,29.72,WNW,292,0.0,0.0,73,0.00,,---,0.00,VWS V13.01,2013-06-17 00:38:00,
2013-06-16 20:43:00,84.7,75.1,29.72,West,270,0.0,0.0,73,0.00,,---,0.00,VWS V13.01,2013-06-17 00:43:00,
2013-06-16 20:48:00,84.7,75.1,29.72,WSW,248,0.0,0.0,73,0.00,,---,0.00,VWS V13.01,2013-06-17 00:48:00,
2013-06-16 20:53:00,84.7,75.1,29.72,West,270,0.0,0.0,73,0.00,,---,0.00,VWS V13.01,2013-06-17 00:53:00,
2013-06-16 20:58:00,84.5,74.9,29.72,WSW,248,0.0,0.0,73,0.00,,---,0.00,VWS V13.01,2013-06-17 00:58:00,
2013-06-16 21:03:00,84.5,75.3,29.72,SW,225,0.0,0.0,74,0.00,,---,0.00,VWS V13.01,2013-06-17 01:03:00,
2013-06-16 21:08:00,84.5,75.3,29.72,WSW,248,0.0,0.0,74,0.00,,---,0.00,VWS V13.01,2013-06-17 01:08:00,
2013-06-16 21:13:00,84.3,75.1,29.72,West,270,0.0,0.0,74,0.00,,---,0.00,VWS V13.01,2013-06-17 01:13:00,
2013-06-16 21:18:00,84.2,75.0,29.72,West,270,0.0,0.0,74,0.00,,---,0.00,VWS V13.01,2013-06-17 01:18:00,
2013-06-16 21:23:00,84.0,74.8,29.72,West,270,0.0,0.0,74,0.00,,---,0.00,VWS V13.01,2013-06-17 01:23:00,
2013-06-16 21:28:00,84.0,75.2,29.72,WSW,248,0.0,0.0,75,0.00,,---,0.00,VWS V13.01,2013-06-17 01:28:00,
2013-06-16 21:33:00,84.0,75.2,29.72,West,270,0.0,0.0,75,0.00,,---,0.00,VWS V13.01,2013-06-17 01:33:00,
2013-06-16 21:38:00,84.0,75.2,29.72,WSW,248,0.0,0.0,75,0.00,,---,0.00,VWS V13.01,2013-06-17 01:38:00,
2013-06-16 21:43:00,83.8,75.0,29.73,WSW,248,0.0,0.0,75,0.00,,---,0.00,VWS V13.01,2013-06-17 01:43:00,
2013-06-16 21:48:00,83.8,75.0,29.73,West,270,0.0,0.0,75,0.00,,---,0.00,VWS V13.01,2013-06-17 01:48:00,
2013-06-16 21:53:00,83.8,75.0,29.73,West,270,0.0,0.0,75,0.00,,---,0.00,VWS V13.01,2013-06-17 01:53:00,
2013-06-16 21:58:00,83.6,74.8,29.73,West,270,0.0,0.0,75,0.00,,---,0.00,VWS V13.01,2013-06-17 01:58:00,
2013-06-16 22:03:00,83.4,74.7,29.73,West,270,0.0,0.0,75,0.00,,---,0.00,VWS V13.01,2013-06-17 02:03:00,
2013-06-16 22:08:00,83.4,74.7,29.73,WSW,248,0.0,0.0,75,0.00,,---,0.00,VWS V13.01,2013-06-17 02:08:00,
2013-06-16 22:13:00,83.4,75.1,29.73,WSW,248,0.0,0.0,76,0.00,,---,0.00,VWS V13.01,2013-06-17 02:13:00,
2013-06-16 22:18:00,83.3,74.9,29.73,West,270,0.0,0.0,76,0.00,,---,0.00,VWS V13.01,2013-06-17 02:18:00,
2013-06-16 22:23:00,83.3,74.9,29.73,SW,225,0.0,0.0,76,0.00,,---,0.00,VWS V13.01,2013-06-17 02:23:00,
2013-06-16 22:28:00,83.1,74.8,29.73,West,270,0.0,0.0,76,0.00,,---,0.00,VWS V13.01,2013-06-17 02:28:00,
2013-06-16 22:33:00,83.1,74.8,29.73,SW,225,0.0,0.0,76,0.00,,---,0.00,VWS V13.01,2013-06-17 02:33:00,
2013-06-16 22:38:00,82.9,74.6,29.73,West,270,0.0,0.0,76,0.00,,---,0.00,VWS V13.01,2013-06-17 02:38:00,
2013-06-16 22:43:00,82.9,74.6,29.73,WSW,248,0.0,0.0,76,0.00,,---,0.00,VWS V13.01,2013-06-17 02:43:00,
2013-06-16 22:48:00,82.9,74.6,29.73,West,270,0.0,0.0,76,0.00,,---,0.00,VWS V13.01,2013-06-17 02:48:00,
2013-06-16 22:53:00,82.9,74.6,29.73,WSW,248,0.0,0.0,76,0.00,,---,0.00,VWS V13.01,2013-06-17 02:53:00,
2013-06-16 22:58:00,82.9,74.6,29.73,SSW,202,0.0,0.0,76,0.00,,---,0.00,VWS V13.01,2013-06-17 02:58:00,
2013-06-16 23:03:00,82.7,74.4,29.73,WSW,248,0.0,0.0,76,0.00,,---,0.00,VWS V13.01,2013-06-17 03:03:00,
2013-06-16 23:08:00,82.7,74.4,29.74,West,270,0.0,0.0,76,0.00,,---,0.00,VWS V13.01,2013-06-17 03:08:00,
2013-06-16 23:13:00,82.5,74.2,29.74,WSW,248,0.0,0.0,76,0.00,,---,0.00,VWS V13.01,2013-06-17 03:13:00,
2013-06-16 23:18:00,82.5,74.2,29.74,SW,225,0.0,0.0,76,0.00,,---,0.00,VWS V13.01,2013-06-17 03:18:00,
2013-06-16 23:23:00,82.5,74.2,29.74,SW,225,0.0,0.0,76,0.00,,---,0.00,VWS V13.01,2013-06-17 03:23:00,
2013-06-16 23:28:00,82.5,74.2,29.74,WSW,248,0.0,0.0,76,0.00,,---,0.00,VWS V13.01,2013-06-17 03:28:00,
2013-06-16 23:33:00,82.5,74.2,29.74,WSW,248,0.0,0.0,76,0.00,,---,0.00,VWS V13.01,2013-06-17 03:33:00,
2013-06-16 23:38:00,82.5,74.2,29.74,WSW,248,0.0,0.0,76,0.00,,---,0.00,VWS V13.01,2013-06-17 03:38:00,
2013-06-16 23:43:00,82.5,74.2,29.74,WSW,248,0.0,0.0,76,0.00,,---,0.00,VWS V13.01,2013-06-17 03:43:00,
2013-06-16 23:48:00,82.5,74.2,29.74,SW,225,0.0,0.0,76,0.00,,---,0.00,VWS V13.01,2013-06-17 03:48:00,
2013-06-16 23:53:00,82.5,74.2,29.74,SW,225,0.0,0.0,76,0.00,,---,0.00,VWS V13.01,2013-06-17 03:53:00,
2013-06-16 23:58:00,82.4,74.1,29.74,WSW,248,0.0,0.0,76,0.00,,---,0.00,VWS V13.01,2013-06-17 03:58:00,